sensor_id;sensor_type;location;lat;lon;timestamp;pressure;altitude;pressure_sealevel;temperature;humidity
70407;BME280;57821;52.202;0.154;2023-03-23T00:00:09;99517.72;;;8.34;100.00
70407;BME280;57821;52.202;0.154;2023-03-23T00:02:37;99530.63;;;8.37;100.00
70407;BME280;57821;52.202;0.154;2023-03-23T00:05:06;99519.47;;;8.33;100.00
70407;BME280;57821;52.202;0.154;2023-03-23T00:07:32;99555.66;;;8.32;100.00
70407;BME280;57821;52.202;0.154;2023-03-23T00:09:57;99559.97;;;8.33;100.00
70407;BME280;57821;52.202;0.154;2023-03-23T00:12:25;99553.13;;;8.25;100.00
70407;BME280;57821;52.202;0.154;2023-03-23T00:14:51;99559.97;;;8.33;100.00
70407;BME280;57821;52.202;0.154;2023-03-23T00:17:16;99554.75;;;8.36;100.00
70407;BME280;57821;52.202;0.154;2023-03-23T00:19:42;99547.84;;;8.35;100.00
70407;BME280;57821;52.202;0.154;2023-03-23T00:22:07;99539.25;;;8.36;100.00
70407;BME280;57821;52.202;0.154;2023-03-23T00:24:32;99551.31;;;8.34;100.00
70407;BME280;57821;52.202;0.154;2023-03-23T00:26:58;99533.28;;;8.31;100.00
70407;BME280;57821;52.202;0.154;2023-03-23T00:29:23;99527.31;;;8.25;100.00
70407;BME280;57821;52.202;0.154;2023-03-23T00:31:51;99541.09;;;8.21;100.00
70407;BME280;57821;52.202;0.154;2023-03-23T00:34:19;99553.22;;;8.16;100.00
70407;BME280;57821;52.202;0.154;2023-03-23T00:36:51;99546.41;;;8.12;100.00
70407;BME280;57821;52.202;0.154;2023-03-23T00:39:17;99545.63;;;8.06;100.00
70407;BME280;57821;52.202;0.154;2023-03-23T00:41:44;99543.13;;;8.01;100.00
70407;BME280;57821;52.202;0.154;2023-03-23T00:44:10;99538.03;;;7.95;100.00
70407;BME280;57821;52.202;0.154;2023-03-23T00:46:35;99541.56;;;7.87;100.00
70407;BME280;57821;52.202;0.154;2023-03-23T00:49:01;99543.34;;;7.83;100.00
70407;BME280;57821;52.202;0.154;2023-03-23T00:51:26;99536.47;;;7.80;100.00
70407;BME280;57821;52.202;0.154;2023-03-23T00:53:52;99561.47;;;7.78;100.00
70407;BME280;57821;52.202;0.154;2023-03-23T00:56:17;99563.19;;;7.75;100.00
70407;BME280;57821;52.202;0.154;2023-03-23T00:58:43;99570.13;;;7.73;100.00
70407;BME280;57821;52.202;0.154;2023-03-23T01:01:09;99560.69;;;7.70;100.00
70407;BME280;57821;52.202;0.154;2023-03-23T01:03:35;99573.56;;;7.70;100.00
70407;BME280;57821;52.202;0.154;2023-03-23T01:06:05;99585.66;;;7.68;100.00
70407;BME280;57821;52.202;0.154;2023-03-23T01:08:33;99571.06;;;7.66;100.00
70407;BME280;57821;52.202;0.154;2023-03-23T01:11:04;99582.25;;;7.65;100.00
70407;BME280;57821;52.202;0.154;2023-03-23T01:13:31;99585.66;;;7.68;100.00
70407;BME280;57821;52.202;0.154;2023-03-23T01:15:56;99583.03;;;7.70;100.00
70407;BME280;57821;52.202;0.154;2023-03-23T01:18:21;99583.03;;;7.70;100.00
70407;BME280;57821;52.202;0.154;2023-03-23T01:20:47;99587.38;;;7.66;100.00
70407;BME280;57821;52.202;0.154;2023-03-23T01:23:12;99595.06;;;7.72;100.00
70407;BME280;57821;52.202;0.154;2023-03-23T01:25:38;99591.59;;;7.75;100.00
70407;BME280;57821;52.202;0.154;2023-03-23T01:28:03;99596.72;;;7.78;100.00
70407;BME280;57821;52.202;0.154;2023-03-23T01:30:29;99598.44;;;7.79;100.00
70407;BME280;57821;52.202;0.154;2023-03-23T01:32:54;99621.63;;;7.82;100.00
70407;BME280;57821;52.202;0.154;2023-03-23T01:35:20;99607.00;;;7.82;100.00
70407;BME280;57821;52.202;0.154;2023-03-23T01:37:46;99610.44;;;7.83;100.00
70407;BME280;57821;52.202;0.154;2023-03-23T01:40:12;99608.72;;;7.82;100.00
70407;BME280;57821;52.202;0.154;2023-03-23T01:42:38;99617.31;;;7.84;100.00
70407;BME280;57821;52.202;0.154;2023-03-23T01:45:26;99612.16;;;7.84;100.00
70407;BME280;57821;52.202;0.154;2023-03-23T01:50:22;99623.34;;;7.81;100.00
70407;BME280;57821;52.202;0.154;2023-03-23T01:52:51;99610.50;;;7.77;100.00
70407;BME280;57821;52.202;0.154;2023-03-23T01:55:18;99614.78;;;7.78;100.00
70407;BME280;57821;52.202;0.154;2023-03-23T01:57:45;99623.34;;;7.81;100.00
70407;BME280;57821;52.202;0.154;2023-03-23T02:00:14;99611.34;;;7.76;100.00
70407;BME280;57821;52.202;0.154;2023-03-23T02:02:42;99616.50;;;7.77;100.00
70407;BME280;57821;52.202;0.154;2023-03-23T02:05:12;99622.47;;;7.81;100.00
70407;BME280;57821;52.202;0.154;2023-03-23T02:07:40;99628.50;;;7.81;100.00
70407;BME280;57821;52.202;0.154;2023-03-23T02:10:07;99612.22;;;7.78;100.00
70407;BME280;57821;52.202;0.154;2023-03-23T02:12:34;99611.34;;;7.79;100.00
70407;BME280;57821;52.202;0.154;2023-03-23T02:15:00;99614.78;;;7.79;100.00
70407;BME280;57821;52.202;0.154;2023-03-23T02:17:48;99609.69;;;7.72;100.00
70407;BME280;57821;52.202;0.154;2023-03-23T02:20:26;99618.22;;;7.77;100.00
70407;BME280;57821;52.202;0.154;2023-03-23T02:23:12;99609.69;;;7.73;100.00
70407;BME280;57821;52.202;0.154;2023-03-23T02:26:03;99608.91;;;7.65;100.00
70407;BME280;57821;52.202;0.154;2023-03-23T02:31:37;99610.59;;;7.68;100.00
70407;BME280;57821;52.202;0.154;2023-03-23T02:34:22;99614.03;;;7.67;100.00
70407;BME280;57821;52.202;0.154;2023-03-23T02:37:03;99614.06;;;7.64;100.00
70407;BME280;57821;52.202;0.154;2023-03-23T02:39:36;99614.13;;;7.58;100.00
70407;BME280;57821;52.202;0.154;2023-03-23T02:42:08;99621.91;;;7.56;100.00
70407;BME280;57821;52.202;0.154;2023-03-23T02:44:36;99633.03;;;7.61;100.00
70407;BME280;57821;52.202;0.154;2023-03-23T02:47:05;99616.69;;;7.59;100.00
70407;BME280;57821;52.202;0.154;2023-03-23T02:49:35;99634.75;;;7.61;100.00
70407;BME280;57821;52.202;0.154;2023-03-23T02:52:05;99624.47;;;7.55;100.00
70407;BME280;57821;52.202;0.154;2023-03-23T02:54:32;99639.97;;;7.55;100.00
70407;BME280;57821;52.202;0.154;2023-03-23T02:56:58;99634.81;;;7.52;100.00
70407;BME280;57821;52.202;0.154;2023-03-23T02:59:28;99633.13;;;7.49;100.00
70407;BME280;57821;52.202;0.154;2023-03-23T03:02:16;99628.88;;;7.43;100.00
70407;BME280;57821;52.202;0.154;2023-03-23T03:04:48;99645.19;;;7.46;100.00
70407;BME280;57821;52.202;0.154;2023-03-23T03:07:25;99648.66;;;7.45;100.00
70407;BME280;57821;52.202;0.154;2023-03-23T03:10:05;99655.53;;;7.42;100.00
70407;BME280;57821;52.202;0.154;2023-03-23T03:15:25;99648.66;;;7.41;100.00
70407;BME280;57821;52.202;0.154;2023-03-23T03:17:59;99649.56;;;7.39;100.00
70407;BME280;57821;52.202;0.154;2023-03-23T03:20:26;99652.97;;;7.42;100.00
70407;BME280;57821;52.202;0.154;2023-03-23T03:22:53;99665.00;;;7.45;100.00
70407;BME280;57821;52.202;0.154;2023-03-23T03:25:20;99668.44;;;7.42;100.00
70407;BME280;57821;52.202;0.154;2023-03-23T03:27:47;99665.84;;;7.44;100.00
70407;BME280;57821;52.202;0.154;2023-03-23T03:30:21;99670.19;;;7.37;100.00
70407;BME280;57821;52.202;0.154;2023-03-23T03:32:48;99678.75;;;7.42;100.00
70407;BME280;57821;52.202;0.154;2023-03-23T03:35:15;99682.19;;;7.41;100.00
70407;BME280;57821;52.202;0.154;2023-03-23T03:37:42;99683.06;;;7.40;100.00
70407;BME280;57821;52.202;0.154;2023-03-23T03:40:14;99681.38;;;7.36;100.00
70407;BME280;57821;52.202;0.154;2023-03-23T03:42:42;99688.25;;;7.34;100.00
70407;BME280;57821;52.202;0.154;2023-03-23T03:45:10;99690.84;;;7.34;100.00
70407;BME280;57821;52.202;0.154;2023-03-23T03:47:36;99696.84;;;7.35;100.00
70407;BME280;57821;52.202;0.154;2023-03-23T03:50:02;99696.00;;;7.34;100.00
70407;BME280;57821;52.202;0.154;2023-03-23T03:52:27;99692.56;;;7.34;100.00
70407;BME280;57821;52.202;0.154;2023-03-23T03:54:53;99699.47;;;7.33;100.00
70407;BME280;57821;52.202;0.154;2023-03-23T03:57:20;99695.16;;;7.29;100.00
70407;BME280;57821;52.202;0.154;2023-03-23T03:59:45;99707.19;;;7.33;100.00
70407;BME280;57821;52.202;0.154;2023-03-23T04:02:29;99703.78;;;7.30;100.00
70407;BME280;57821;52.202;0.154;2023-03-23T04:04:55;99705.50;;;7.29;100.00
70407;BME280;57821;52.202;0.154;2023-03-23T04:07:20;99705.53;;;7.26;100.00
70407;BME280;57821;52.202;0.154;2023-03-23T04:09:46;99708.09;;;7.28;100.00
70407;BME280;57821;52.202;0.154;2023-03-23T04:12:14;99714.97;;;7.27;100.00
70407;BME280;57821;52.202;0.154;2023-03-23T04:15:09;99711.53;;;7.24;100.00
70407;BME280;57821;52.202;0.154;2023-03-23T04:17:35;99707.25;;;7.23;100.00
70407;BME280;57821;52.202;0.154;2023-03-23T04:20:01;99715.84;;;7.23;100.00
70407;BME280;57821;52.202;0.154;2023-03-23T04:22:28;99730.44;;;7.24;100.00
70407;BME280;57821;52.202;0.154;2023-03-23T04:24:53;99729.59;;;7.25;100.00
70407;BME280;57821;52.202;0.154;2023-03-23T04:27:19;99728.72;;;7.25;100.00
70407;BME280;57821;52.202;0.154;2023-03-23T04:29:45;99737.31;;;7.27;100.00
70407;BME280;57821;52.202;0.154;2023-03-23T04:32:49;99735.59;;;7.26;100.00
70407;BME280;57821;52.202;0.154;2023-03-23T04:35:20;99737.31;;;7.27;100.00
70407;BME280;57821;52.202;0.154;2023-03-23T04:37:52;99738.19;;;7.27;100.00
70407;BME280;57821;52.202;0.154;2023-03-23T04:40:20;99745.91;;;7.26;100.00
70407;BME280;57821;52.202;0.154;2023-03-23T04:42:58;99748.50;;;7.24;100.00
70407;BME280;57821;52.202;0.154;2023-03-23T04:45:33;99745.06;;;7.25;100.00
70407;BME280;57821;52.202;0.154;2023-03-23T04:48:00;99745.91;;;7.24;100.00
70407;BME280;57821;52.202;0.154;2023-03-23T04:50:35;99751.06;;;7.23;100.00
70407;BME280;57821;52.202;0.154;2023-03-23T04:53:10;99757.09;;;7.23;100.00
70407;BME280;57821;52.202;0.154;2023-03-23T04:55:36;99761.44;;;7.21;100.00
70407;BME280;57821;52.202;0.154;2023-03-23T04:58:04;99750.25;;;7.19;100.00
70407;BME280;57821;52.202;0.154;2023-03-23T05:00:52;99749.44;;;7.14;100.00
70407;BME280;57821;52.202;0.154;2023-03-23T05:03:20;99755.44;;;7.13;100.00
70407;BME280;57821;52.202;0.154;2023-03-23T05:05:48;99750.31;;;7.10;100.00
70407;BME280;57821;52.202;0.154;2023-03-23T05:08:14;99764.06;;;7.09;100.00
70407;BME280;57821;52.202;0.154;2023-03-23T05:10:40;99761.50;;;7.09;100.00
70407;BME280;57821;52.202;0.154;2023-03-23T05:13:10;99760.63;;;7.07;100.00
70407;BME280;57821;52.202;0.154;2023-03-23T05:15:36;99765.78;;;7.07;100.00
70407;BME280;57821;52.202;0.154;2023-03-23T05:18:03;99766.66;;;7.06;100.00
70407;BME280;57821;52.202;0.154;2023-03-23T05:20:30;99765.81;;;7.04;100.00
70407;BME280;57821;52.202;0.154;2023-03-23T05:23:00;99776.13;;;7.04;100.00
70407;BME280;57821;52.202;0.154;2023-03-23T05:25:31;99769.25;;;7.01;100.00
70407;BME280;57821;52.202;0.154;2023-03-23T05:28:00;99770.97;;;7.01;100.00
70407;BME280;57821;52.202;0.154;2023-03-23T05:30:46;99775.25;;;6.99;100.00
70407;BME280;57821;52.202;0.154;2023-03-23T05:33:13;99769.28;;;6.98;100.00
70407;BME280;57821;52.202;0.154;2023-03-23T05:35:47;99775.25;;;6.99;100.00
70407;BME280;57821;52.202;0.154;2023-03-23T05:38:14;99772.69;;;6.99;100.00
70407;BME280;57821;52.202;0.154;2023-03-23T05:40:40;99777.00;;;6.98;100.00
70407;BME280;57821;52.202;0.154;2023-03-23T05:43:25;99778.72;;;6.98;100.00
70407;BME280;57821;52.202;0.154;2023-03-23T05:45:59;99776.16;;;6.98;100.00
70407;BME280;57821;52.202;0.154;2023-03-23T05:48:25;99774.44;;;6.97;100.00
70407;BME280;57821;52.202;0.154;2023-03-23T05:50:50;99777.00;;;6.94;100.00
70407;BME280;57821;52.202;0.154;2023-03-23T05:53:17;99781.31;;;6.95;100.00
70407;BME280;57821;52.202;0.154;2023-03-23T05:55:43;99780.44;;;6.94;100.00
70407;BME280;57821;52.202;0.154;2023-03-23T05:58:18;99781.31;;;6.96;100.00
70407;BME280;57821;52.202;0.154;2023-03-23T06:00:45;99783.03;;;6.96;100.00
70407;BME280;57821;52.202;0.154;2023-03-23T06:03:23;99777.88;;;6.96;100.00
70407;BME280;57821;52.202;0.154;2023-03-23T06:05:56;99777.88;;;6.96;100.00
70407;BME280;57821;52.202;0.154;2023-03-23T06:08:29;99783.03;;;6.96;100.00
70407;BME280;57821;52.202;0.154;2023-03-23T06:10:56;99777.88;;;6.96;100.00
70407;BME280;57821;52.202;0.154;2023-03-23T06:13:22;99779.59;;;6.97;100.00
70407;BME280;57821;52.202;0.154;2023-03-23T06:15:49;99790.75;;;6.97;100.00
70407;BME280;57821;52.202;0.154;2023-03-23T06:18:29;99781.28;;;6.99;100.00
70407;BME280;57821;52.202;0.154;2023-03-23T06:21:17;99790.72;;;7.02;100.00
70407;BME280;57821;52.202;0.154;2023-03-23T06:23:51;99785.56;;;7.00;100.00
70407;BME280;57821;52.202;0.154;2023-03-23T06:26:19;99784.72;;;7.03;100.00
70407;BME280;57821;52.202;0.154;2023-03-23T06:28:49;99790.69;;;7.05;100.00
70407;BME280;57821;52.202;0.154;2023-03-23T06:31:15;99789.88;;;7.05;100.00
70407;BME280;57821;52.202;0.154;2023-03-23T06:33:40;99794.13;;;7.06;100.00
70407;BME280;57821;52.202;0.154;2023-03-23T06:36:24;99795.84;;;7.07;100.00
70407;BME280;57821;52.202;0.154;2023-03-23T06:38:58;99794.13;;;7.12;100.00
70407;BME280;57821;52.202;0.154;2023-03-23T06:41:33;99801.84;;;7.15;100.00
70407;BME280;57821;52.202;0.154;2023-03-23T06:44:00;99804.38;;;7.18;100.00
70407;BME280;57821;52.202;0.154;2023-03-23T06:46:29;99804.41;;;7.21;100.00
70407;BME280;57821;52.202;0.154;2023-03-23T06:48:54;99805.22;;;7.26;100.00
70407;BME280;57821;52.202;0.154;2023-03-23T06:51:28;99797.44;;;7.29;100.00
70407;BME280;57821;52.202;0.154;2023-03-23T06:53:55;99792.28;;;7.29;100.00
70407;BME280;57821;52.202;0.154;2023-03-23T06:56:24;99792.25;;;7.35;100.00
70407;BME280;57821;52.202;0.154;2023-03-23T06:58:50;99784.53;;;7.39;100.00
70407;BME280;57821;52.202;0.154;2023-03-23T07:01:16;99778.47;;;7.40;100.00
70407;BME280;57821;52.202;0.154;2023-03-23T07:03:51;99782.72;;;7.48;100.00
70407;BME280;57821;52.202;0.154;2023-03-23T07:06:23;99779.25;;;7.52;100.00
70407;BME280;57821;52.202;0.154;2023-03-23T07:08:55;99779.22;;;7.58;100.00
70407;BME280;57821;52.202;0.154;2023-03-23T07:11:23;99787.81;;;7.63;100.00
70407;BME280;57821;52.202;0.154;2023-03-23T07:13:49;99785.16;;;7.69;100.00
70407;BME280;57821;52.202;0.154;2023-03-23T07:16:17;99781.69;;;7.74;100.00
70407;BME280;57821;52.202;0.154;2023-03-23T07:18:42;99776.50;;;7.77;100.00
70407;BME280;57821;52.202;0.154;2023-03-23T07:21:09;99780.75;;;7.83;100.00
70407;BME280;57821;52.202;0.154;2023-03-23T07:23:35;99774.69;;;7.89;100.00
70407;BME280;57821;52.202;0.154;2023-03-23T07:26:07;99765.19;;;7.92;100.00
70407;BME280;57821;52.202;0.154;2023-03-23T07:28:38;99767.75;;;7.97;100.00
70407;BME280;57821;52.202;0.154;2023-03-23T07:31:14;99768.50;;;8.09;100.00
70407;BME280;57821;52.202;0.154;2023-03-23T07:33:41;99770.97;;;8.18;100.00
70407;BME280;57821;52.202;0.154;2023-03-23T07:36:07;99764.03;;;8.27;100.00
70407;BME280;57821;52.202;0.154;2023-03-23T07:38:35;99752.75;;;8.35;100.00
70407;BME280;57821;52.202;0.154;2023-03-23T07:41:00;99763.81;;;8.46;100.00
70407;BME280;57821;52.202;0.154;2023-03-23T07:43:26;99764.59;;;8.56;100.00
70407;BME280;57821;52.202;0.154;2023-03-23T07:45:57;99761.91;;;8.65;100.00
70407;BME280;57821;52.202;0.154;2023-03-23T07:48:27;99760.91;;;8.75;100.00
70407;BME280;57821;52.202;0.154;2023-03-23T07:50:53;99761.72;;;8.80;100.00
70407;BME280;57821;52.202;0.154;2023-03-23T07:53:20;99765.94;;;8.87;100.00
70407;BME280;57821;52.202;0.154;2023-03-23T07:55:53;99762.41;;;8.94;100.00
70407;BME280;57821;52.202;0.154;2023-03-23T07:58:45;99767.44;;;9.05;100.00
70407;BME280;57821;52.202;0.154;2023-03-23T08:01:14;99762.09;;;9.16;100.00
70407;BME280;57821;52.202;0.154;2023-03-23T08:03:43;99766.25;;;9.27;100.00
70407;BME280;57821;52.202;0.154;2023-03-23T08:06:20;99776.34;;;9.45;100.00
70407;BME280;57821;52.202;0.154;2023-03-23T08:08:57;99778.75;;;9.59;100.00
70407;BME280;57821;52.202;0.154;2023-03-23T08:11:45;99774.25;;;9.70;100.00
70407;BME280;57821;52.202;0.154;2023-03-23T08:14:31;99767.94;;;9.86;100.00
70407;BME280;57821;52.202;0.154;2023-03-23T08:16:59;99765.91;;;10.04;100.00
70407;BME280;57821;52.202;0.154;2023-03-23T08:19:35;99768.31;;;10.17;100.00
70407;BME280;57821;52.202;0.154;2023-03-23T08:22:19;99775.78;;;10.34;100.00
70407;BME280;57821;52.202;0.154;2023-03-23T08:25:14;99778.25;;;10.42;100.00
70407;BME280;57821;52.202;0.154;2023-03-23T08:28:03;99770.41;;;10.43;100.00
70407;BME280;57821;52.202;0.154;2023-03-23T08:30:48;99767.03;;;10.41;100.00
70407;BME280;57821;52.202;0.154;2023-03-23T08:33:23;99763.56;;;10.42;100.00
70407;BME280;57821;52.202;0.154;2023-03-23T08:36:12;99768.53;;;10.51;100.00
70407;BME280;57821;52.202;0.154;2023-03-23T08:38:43;99775.22;;;10.64;100.00
70407;BME280;57821;52.202;0.154;2023-03-23T08:41:28;99772.41;;;10.75;100.00
70407;BME280;57821;52.202;0.154;2023-03-23T08:44:20;99771.31;;;10.87;100.00
70407;BME280;57821;52.202;0.154;2023-03-23T08:47:10;99785.75;;;10.98;100.00
70407;BME280;57821;52.202;0.154;2023-03-23T08:49:54;99774.31;;;11.07;100.00
70407;BME280;57821;52.202;0.154;2023-03-23T08:52:42;99774.06;;;11.19;100.00
70407;BME280;57821;52.202;0.154;2023-03-23T08:55:28;99768.56;;;11.34;100.00
70407;BME280;57821;52.202;0.154;2023-03-23T08:58:14;99781.28;;;11.45;100.00
70407;BME280;57821;52.202;0.154;2023-03-23T09:00:51;99775.09;;;11.50;100.00
70407;BME280;57821;52.202;0.154;2023-03-23T09:03:27;99771.47;;;11.58;100.00
70407;BME280;57821;52.202;0.154;2023-03-23T09:06:12;99769.53;;;11.66;100.00
70407;BME280;57821;52.202;0.154;2023-03-23T09:08:46;99745.22;;;11.70;100.00
70407;BME280;57821;52.202;0.154;2023-03-23T09:11:12;99755.53;;;11.73;100.00
70407;BME280;57821;52.202;0.154;2023-03-23T09:13:38;99766.50;;;11.85;100.00
70407;BME280;57821;52.202;0.154;2023-03-23T09:16:05;99765.47;;;11.92;100.00
70407;BME280;57821;52.202;0.154;2023-03-23T09:18:31;99755.56;;;12.07;100.00
70407;BME280;57821;52.202;0.154;2023-03-23T09:20:57;99755.94;;;12.25;100.00
70407;BME280;57821;52.202;0.154;2023-03-23T09:23:23;99745.75;;;12.50;100.00
70407;BME280;57821;52.202;0.154;2023-03-23T09:25:48;99758.00;;;12.76;100.00
70407;BME280;57821;52.202;0.154;2023-03-23T09:28:14;99757.31;;;13.00;100.00
70407;BME280;57821;52.202;0.154;2023-03-23T09:30:40;99763.63;;;13.23;100.00
70407;BME280;57821;52.202;0.154;2023-03-23T09:33:06;99757.78;;;13.44;100.00
70407;BME280;57821;52.202;0.154;2023-03-23T09:35:32;99764.00;;;13.66;97.56
70407;BME280;57821;52.202;0.154;2023-03-23T09:37:58;99769.75;;;13.76;98.06
70407;BME280;57821;52.202;0.154;2023-03-23T09:40:27;99772.13;;;13.83;97.33
70407;BME280;57821;52.202;0.154;2023-03-23T09:43:36;99772.78;;;13.90;97.31
70407;BME280;57821;52.202;0.154;2023-03-23T09:46:39;99780.13;;;14.04;100.00
70407;BME280;57821;52.202;0.154;2023-03-23T09:49:27;99776.34;;;14.14;86.75
70407;BME280;57821;52.202;0.154;2023-03-23T09:51:57;99787.72;;;14.11;91.32
70407;BME280;57821;52.202;0.154;2023-03-23T09:54:30;99780.13;;;14.04;89.85
70407;BME280;57821;52.202;0.154;2023-03-23T09:56:58;99781.34;;;13.93;90.41
70407;BME280;57821;52.202;0.154;2023-03-23T09:59:34;99793.88;;;13.82;89.03
70407;BME280;57821;52.202;0.154;2023-03-23T10:02:13;99784.72;;;13.69;92.50
70407;BME280;57821;52.202;0.154;2023-03-23T10:04:51;99791.91;;;13.63;84.68
70407;BME280;57821;52.202;0.154;2023-03-23T10:07:21;99794.03;;;13.50;89.79
70407;BME280;57821;52.202;0.154;2023-03-23T10:10:00;99785.59;;;13.42;92.32
70407;BME280;57821;52.202;0.154;2023-03-23T10:12:46;99777.16;;;13.34;88.28
70407;BME280;57821;52.202;0.154;2023-03-23T10:15:23;99786.41;;;13.44;94.07
70407;BME280;57821;52.202;0.154;2023-03-23T10:18:10;99773.41;;;13.44;90.51
70407;BME280;57821;52.202;0.154;2023-03-23T10:20:45;99788.06;;;13.46;92.40
70407;BME280;57821;52.202;0.154;2023-03-23T10:25:51;99781.88;;;13.50;96.59
70407;BME280;57821;52.202;0.154;2023-03-23T10:28:20;99790.47;;;13.52;89.12
70407;BME280;57821;52.202;0.154;2023-03-23T10:30:51;99781.75;;;13.53;94.54
70407;BME280;57821;52.202;0.154;2023-03-23T10:33:40;99774.69;;;13.57;97.15
70407;BME280;57821;52.202;0.154;2023-03-23T10:36:21;99786.75;;;13.61;93.77
70407;BME280;57821;52.202;0.154;2023-03-23T10:39:00;99770.31;;;13.59;91.20
70407;BME280;57821;52.202;0.154;2023-03-23T10:41:27;99778.63;;;13.70;85.11
70407;BME280;57821;52.202;0.154;2023-03-23T10:43:53;99794.09;;;13.75;86.36
70407;BME280;57821;52.202;0.154;2023-03-23T10:46:40;99783.56;;;13.79;83.59
70407;BME280;57821;52.202;0.154;2023-03-23T10:49:12;99787.75;;;13.83;87.09
70407;BME280;57821;52.202;0.154;2023-03-23T10:51:43;99779.63;;;13.92;92.34
70407;BME280;57821;52.202;0.154;2023-03-23T10:54:10;99797.88;;;14.19;89.41
70407;BME280;57821;52.202;0.154;2023-03-23T10:56:44;99784.25;;;14.37;94.91
70407;BME280;57821;52.202;0.154;2023-03-23T10:59:39;99762.38;;;14.41;92.42
70407;BME280;57821;52.202;0.154;2023-03-23T11:02:03;99797.66;;;14.51;89.62
70407;BME280;57821;52.202;0.154;2023-03-23T11:04:39;99777.13;;;14.42;86.46
70407;BME280;57821;52.202;0.154;2023-03-23T11:07:04;99785.22;;;14.33;90.86
70407;BME280;57821;52.202;0.154;2023-03-23T11:09:39;99783.16;;;14.18;88.13
70407;BME280;57821;52.202;0.154;2023-03-23T11:12:16;99791.53;;;14.01;82.54
70407;BME280;57821;52.202;0.154;2023-03-23T11:14:42;99783.38;;;13.85;80.77
70407;BME280;57821;52.202;0.154;2023-03-23T11:17:21;99804.63;;;13.72;89.93
70407;BME280;57821;52.202;0.154;2023-03-23T11:19:47;99796.13;;;13.67;84.83
70407;BME280;57821;52.202;0.154;2023-03-23T11:22:24;99806.50;;;13.68;78.29
70407;BME280;57821;52.202;0.154;2023-03-23T11:24:53;99777.94;;;13.65;86.31
70407;BME280;57821;52.202;0.154;2023-03-23T11:27:20;99783.84;;;13.70;85.99
70407;BME280;57821;52.202;0.154;2023-03-23T11:29:52;99781.94;;;13.75;87.93
70407;BME280;57821;52.202;0.154;2023-03-23T11:32:19;99784.66;;;13.72;75.24
70407;BME280;57821;52.202;0.154;2023-03-23T11:34:48;99795.16;;;13.69;82.66
70407;BME280;57821;52.202;0.154;2023-03-23T11:37:35;99791.84;;;13.64;86.38
70407;BME280;57821;52.202;0.154;2023-03-23T11:42:48;99778.56;;;13.73;88.91
70407;BME280;57821;52.202;0.154;2023-03-23T11:45:40;99785.84;;;13.88;92.48
70407;BME280;57821;52.202;0.154;2023-03-23T11:51:08;99783.47;;;14.09;87.55
70407;BME280;57821;52.202;0.154;2023-03-23T11:56:19;99794.88;;;14.31;87.81
70407;BME280;57821;52.202;0.154;2023-03-23T11:58:48;99766.78;;;14.39;86.98
70407;BME280;57821;52.202;0.154;2023-03-23T12:07:14;99767.41;;;14.70;87.23
70407;BME280;57821;52.202;0.154;2023-03-23T12:18:15;99790.69;;;15.23;74.85
70407;BME280;57821;52.202;0.154;2023-03-23T12:20:53;99782.50;;;15.32;74.75
70407;BME280;57821;52.202;0.154;2023-03-23T12:23:27;99795.41;;;15.37;74.28
70407;BME280;57821;52.202;0.154;2023-03-23T12:26:22;99777.66;;;15.45;78.04
70407;BME280;57821;52.202;0.154;2023-03-23T12:38:04;99765.44;;;15.45;72.57
70407;BME280;57821;52.202;0.154;2023-03-23T12:45:55;99744.47;;;15.70;72.93
70407;BME280;57821;52.202;0.154;2023-03-23T12:48:27;99731.69;;;15.63;68.25
70407;BME280;57821;52.202;0.154;2023-03-23T12:51:08;99736.81;;;15.66;73.08
70407;BME280;57821;52.202;0.154;2023-03-23T12:56:19;99748.03;;;15.68;72.00
70407;BME280;57821;52.202;0.154;2023-03-23T12:58:53;99726.88;;;15.74;73.46
70407;BME280;57821;52.202;0.154;2023-03-23T13:01:28;99731.09;;;15.98;72.49
70407;BME280;57821;52.202;0.154;2023-03-23T13:03:58;99725.09;;;16.16;70.80
70407;BME280;57821;52.202;0.154;2023-03-23T13:06:38;99712.16;;;16.13;67.17
70407;BME280;57821;52.202;0.154;2023-03-23T13:09:28;99728.88;;;16.09;64.47
70407;BME280;57821;52.202;0.154;2023-03-23T13:11:58;99723.19;;;15.99;64.18
70407;BME280;57821;52.202;0.154;2023-03-23T13:14:50;99698.03;;;15.97;66.23
70407;BME280;57821;52.202;0.154;2023-03-23T13:25:19;99711.63;;;16.05;62.28
70407;BME280;57821;52.202;0.154;2023-03-23T13:27:57;99712.84;;;15.96;64.11
70407;BME280;57821;52.202;0.154;2023-03-23T13:30:23;99713.66;;;15.98;63.00
70407;BME280;57821;52.202;0.154;2023-03-23T13:32:48;99687.44;;;16.00;62.75
70407;BME280;57821;52.202;0.154;2023-03-23T13:35:17;99695.09;;;16.05;62.17
70407;BME280;57821;52.202;0.154;2023-03-23T13:37:50;99683.94;;;16.01;61.58
70407;BME280;57821;52.202;0.154;2023-03-23T13:40:20;99687.78;;;16.13;61.19
70407;BME280;57821;52.202;0.154;2023-03-23T13:42:52;99692.38;;;16.26;62.03
70407;BME280;57821;52.202;0.154;2023-03-23T13:45:43;99682.81;;;16.46;58.46
70407;BME280;57821;52.202;0.154;2023-03-23T13:53:23;99669.31;;;16.75;58.57
70407;BME280;57821;52.202;0.154;2023-03-23T13:55:51;99664.06;;;16.75;57.96
70407;BME280;57821;52.202;0.154;2023-03-23T13:58:25;99672.03;;;16.72;57.88
70407;BME280;57821;52.202;0.154;2023-03-23T14:03:38;99661.69;;;16.50;56.63
70407;BME280;57821;52.202;0.154;2023-03-23T14:06:15;99656.56;;;16.28;54.98
70407;BME280;57821;52.202;0.154;2023-03-23T14:09:31;99672.63;;;16.19;56.27
70407;BME280;57821;52.202;0.154;2023-03-23T14:12:21;99656.31;;;16.14;56.72
70407;BME280;57821;52.202;0.154;2023-03-23T14:14:50;99663.56;;;16.08;55.25
70407;BME280;57821;52.202;0.154;2023-03-23T14:17:18;99649.00;;;16.02;55.94
70407;BME280;57821;52.202;0.154;2023-03-23T14:19:49;99646.31;;;16.03;56.54
70407;BME280;57821;52.202;0.154;2023-03-23T14:22:27;99656.94;;;16.19;57.38
70407;BME280;57821;52.202;0.154;2023-03-23T14:25:09;99656.16;;;16.37;57.38
70407;BME280;57821;52.202;0.154;2023-03-23T14:27:35;99680.38;;;16.61;55.49
70407;BME280;57821;52.202;0.154;2023-03-23T14:30:06;99649.84;;;16.62;52.60
70407;BME280;57821;52.202;0.154;2023-03-23T14:32:32;99668.94;;;16.64;53.42